sensor_id;sensor_type;location;lat;lon;timestamp;temperature;humidity
37412;DHT22;23278;52.110;6.050;2024-02-16T00:00:18;11.50;99.90
37412;DHT22;23278;52.110;6.050;2024-02-16T00:02:44;11.50;99.90
37412;DHT22;23278;52.110;6.050;2024-02-16T00:05:12;11.40;99.90
37412;DHT22;23278;52.110;6.050;2024-02-16T00:07:38;11.40;99.90
37412;DHT22;23278;52.110;6.050;2024-02-16T00:10:05;11.40;99.90
37412;DHT22;23278;52.110;6.050;2024-02-16T00:12:33;11.40;99.90
37412;DHT22;23278;52.110;6.050;2024-02-16T00:14:59;11.40;99.90
37412;DHT22;23278;52.110;6.050;2024-02-16T00:17:26;11.40;99.90
37412;DHT22;23278;52.110;6.050;2024-02-16T00:19:55;11.40;99.90
37412;DHT22;23278;52.110;6.050;2024-02-16T00:22:21;11.40;99.90
37412;DHT22;23278;52.110;6.050;2024-02-16T00:24:47;11.40;99.90
37412;DHT22;23278;52.110;6.050;2024-02-16T00:27:16;11.40;99.90
37412;DHT22;23278;52.110;6.050;2024-02-16T00:29:42;11.40;99.90
37412;DHT22;23278;52.110;6.050;2024-02-16T00:32:08;11.40;99.90
37412;DHT22;23278;52.110;6.050;2024-02-16T00:34:36;11.40;99.90
37412;DHT22;23278;52.110;6.050;2024-02-16T00:37:02;11.40;99.90
37412;DHT22;23278;52.110;6.050;2024-02-16T00:39:30;11.40;99.90
37412;DHT22;23278;52.110;6.050;2024-02-16T00:41:56;11.40;99.90
37412;DHT22;23278;52.110;6.050;2024-02-16T00:44:22;11.40;99.90
37412;DHT22;23278;52.110;6.050;2024-02-16T00:46:48;11.30;99.90
37412;DHT22;23278;52.110;6.050;2024-02-16T00:49:14;11.30;99.90
37412;DHT22;23278;52.110;6.050;2024-02-16T00:51:40;11.30;99.90
37412;DHT22;23278;52.110;6.050;2024-02-16T00:54:06;11.20;99.90
37412;DHT22;23278;52.110;6.050;2024-02-16T00:56:32;11.10;99.90
37412;DHT22;23278;52.110;6.050;2024-02-16T00:58:58;11.10;99.90
37412;DHT22;23278;52.110;6.050;2024-02-16T01:01:24;11.10;99.90
37412;DHT22;23278;52.110;6.050;2024-02-16T01:03:52;11.10;99.90
37412;DHT22;23278;52.110;6.050;2024-02-16T01:06:19;11.10;99.90
37412;DHT22;23278;52.110;6.050;2024-02-16T01:08:45;11.10;99.90
37412;DHT22;23278;52.110;6.050;2024-02-16T01:11:14;11.10;99.90
37412;DHT22;23278;52.110;6.050;2024-02-16T01:13:40;11.10;99.90
37412;DHT22;23278;52.110;6.050;2024-02-16T01:16:06;11.10;99.90
37412;DHT22;23278;52.110;6.050;2024-02-16T01:18:33;11.10;99.90
37412;DHT22;23278;52.110;6.050;2024-02-16T01:20:59;11.10;99.90
37412;DHT22;23278;52.110;6.050;2024-02-16T01:23:24;11.10;99.90
37412;DHT22;23278;52.110;6.050;2024-02-16T01:25:51;11.20;99.90
37412;DHT22;23278;52.110;6.050;2024-02-16T01:28:16;11.20;99.90
37412;DHT22;23278;52.110;6.050;2024-02-16T01:30:42;11.20;99.90
37412;DHT22;23278;52.110;6.050;2024-02-16T01:33:08;11.20;99.90
37412;DHT22;23278;52.110;6.050;2024-02-16T01:35:34;11.20;99.90
37412;DHT22;23278;52.110;6.050;2024-02-16T01:38:00;11.20;99.90
37412;DHT22;23278;52.110;6.050;2024-02-16T01:40:29;11.20;99.90
37412;DHT22;23278;52.110;6.050;2024-02-16T01:42:55;11.20;99.90
37412;DHT22;23278;52.110;6.050;2024-02-16T01:45:22;11.10;99.90
37412;DHT22;23278;52.110;6.050;2024-02-16T01:47:49;11.10;99.90
37412;DHT22;23278;52.110;6.050;2024-02-16T01:50:17;11.10;99.90
37412;DHT22;23278;52.110;6.050;2024-02-16T01:52:44;11.00;99.90
37412;DHT22;23278;52.110;6.050;2024-02-16T01:55:11;11.00;99.90
37412;DHT22;23278;52.110;6.050;2024-02-16T01:57:43;11.00;99.90
37412;DHT22;23278;52.110;6.050;2024-02-16T02:00:10;11.00;99.90
37412;DHT22;23278;52.110;6.050;2024-02-16T02:02:36;11.00;99.90
37412;DHT22;23278;52.110;6.050;2024-02-16T02:05:03;10.90;99.90
37412;DHT22;23278;52.110;6.050;2024-02-16T02:07:31;10.90;99.90
37412;DHT22;23278;52.110;6.050;2024-02-16T02:09:58;10.90;99.90
37412;DHT22;23278;52.110;6.050;2024-02-16T02:12:23;10.90;99.90
37412;DHT22;23278;52.110;6.050;2024-02-16T02:14:50;10.90;99.90
37412;DHT22;23278;52.110;6.050;2024-02-16T02:17:17;10.90;99.90
37412;DHT22;23278;52.110;6.050;2024-02-16T02:19:43;10.90;99.90
37412;DHT22;23278;52.110;6.050;2024-02-16T02:22:27;10.90;99.90
37412;DHT22;23278;52.110;6.050;2024-02-16T02:24:53;10.90;99.90
37412;DHT22;23278;52.110;6.050;2024-02-16T02:27:21;10.90;99.90
37412;DHT22;23278;52.110;6.050;2024-02-16T02:29:47;10.90;99.90
37412;DHT22;23278;52.110;6.050;2024-02-16T02:32:13;10.90;99.90
37412;DHT22;23278;52.110;6.050;2024-02-16T02:34:39;10.90;99.90
37412;DHT22;23278;52.110;6.050;2024-02-16T02:37:05;10.90;99.90
37412;DHT22;23278;52.110;6.050;2024-02-16T02:39:32;10.90;99.90
37412;DHT22;23278;52.110;6.050;2024-02-16T02:41:58;10.90;99.90
37412;DHT22;23278;52.110;6.050;2024-02-16T02:44:24;10.90;99.90
37412;DHT22;23278;52.110;6.050;2024-02-16T02:46:51;11.00;99.90
37412;DHT22;23278;52.110;6.050;2024-02-16T02:49:18;11.00;99.90
37412;DHT22;23278;52.110;6.050;2024-02-16T02:51:43;11.10;99.90
37412;DHT22;23278;52.110;6.050;2024-02-16T02:54:09;11.20;99.90
37412;DHT22;23278;52.110;6.050;2024-02-16T02:56:35;11.30;99.90
37412;DHT22;23278;52.110;6.050;2024-02-16T02:59:02;11.40;99.90
37412;DHT22;23278;52.110;6.050;2024-02-16T03:01:28;11.40;99.90
37412;DHT22;23278;52.110;6.050;2024-02-16T03:03:54;11.40;99.90
37412;DHT22;23278;52.110;6.050;2024-02-16T03:06:20;11.40;99.90
37412;DHT22;23278;52.110;6.050;2024-02-16T03:08:46;11.40;99.90
37412;DHT22;23278;52.110;6.050;2024-02-16T03:11:13;11.30;99.90
37412;DHT22;23278;52.110;6.050;2024-02-16T03:13:39;11.30;99.90
37412;DHT22;23278;52.110;6.050;2024-02-16T03:16:05;11.30;99.90
37412;DHT22;23278;52.110;6.050;2024-02-16T03:18:32;11.30;99.90
37412;DHT22;23278;52.110;6.050;2024-02-16T03:20:58;11.40;99.90
37412;DHT22;23278;52.110;6.050;2024-02-16T03:23:24;11.40;99.90
37412;DHT22;23278;52.110;6.050;2024-02-16T03:25:50;11.50;99.90
37412;DHT22;23278;52.110;6.050;2024-02-16T03:28:16;11.50;99.90
37412;DHT22;23278;52.110;6.050;2024-02-16T03:30:43;11.50;99.90
37412;DHT22;23278;52.110;6.050;2024-02-16T03:33:09;11.50;99.90
37412;DHT22;23278;52.110;6.050;2024-02-16T03:35:35;11.50;99.90
37412;DHT22;23278;52.110;6.050;2024-02-16T03:38:02;11.50;99.90
37412;DHT22;23278;52.110;6.050;2024-02-16T03:40:29;11.50;99.90
37412;DHT22;23278;52.110;6.050;2024-02-16T03:42:55;11.50;99.90
37412;DHT22;23278;52.110;6.050;2024-02-16T03:45:21;11.60;99.90
37412;DHT22;23278;52.110;6.050;2024-02-16T03:47:47;11.60;99.90
37412;DHT22;23278;52.110;6.050;2024-02-16T03:50:19;11.60;99.90
37412;DHT22;23278;52.110;6.050;2024-02-16T03:52:45;11.60;99.90
37412;DHT22;23278;52.110;6.050;2024-02-16T03:55:11;11.60;99.90
37412;DHT22;23278;52.110;6.050;2024-02-16T03:57:40;11.50;99.90
37412;DHT22;23278;52.110;6.050;2024-02-16T04:00:07;11.40;99.90
37412;DHT22;23278;52.110;6.050;2024-02-16T04:02:40;11.40;99.90
37412;DHT22;23278;52.110;6.050;2024-02-16T04:05:06;11.40;99.90
37412;DHT22;23278;52.110;6.050;2024-02-16T04:07:34;11.40;99.90
37412;DHT22;23278;52.110;6.050;2024-02-16T04:10:00;11.40;99.90
37412;DHT22;23278;52.110;6.050;2024-02-16T04:12:26;11.40;99.90
37412;DHT22;23278;52.110;6.050;2024-02-16T04:14:51;11.40;99.90
37412;DHT22;23278;52.110;6.050;2024-02-16T04:17:17;11.40;99.90
37412;DHT22;23278;52.110;6.050;2024-02-16T04:19:44;11.40;99.90
37412;DHT22;23278;52.110;6.050;2024-02-16T04:22:10;11.40;99.90
37412;DHT22;23278;52.110;6.050;2024-02-16T04:24:36;11.50;99.90
37412;DHT22;23278;52.110;6.050;2024-02-16T04:27:01;11.50;99.90
37412;DHT22;23278;52.110;6.050;2024-02-16T04:29:27;11.40;99.90
37412;DHT22;23278;52.110;6.050;2024-02-16T04:31:53;11.40;99.90
37412;DHT22;23278;52.110;6.050;2024-02-16T04:34:19;11.40;99.90
37412;DHT22;23278;52.110;6.050;2024-02-16T04:36:45;11.40;99.90
37412;DHT22;23278;52.110;6.050;2024-02-16T04:39:11;11.30;99.90
37412;DHT22;23278;52.110;6.050;2024-02-16T04:41:37;11.30;99.90
37412;DHT22;23278;52.110;6.050;2024-02-16T04:44:04;11.40;99.90
37412;DHT22;23278;52.110;6.050;2024-02-16T04:46:30;11.40;99.90
37412;DHT22;23278;52.110;6.050;2024-02-16T04:48:55;11.40;99.90
37412;DHT22;23278;52.110;6.050;2024-02-16T04:51:21;11.40;99.90
37412;DHT22;23278;52.110;6.050;2024-02-16T04:53:47;11.50;99.90
37412;DHT22;23278;52.110;6.050;2024-02-16T04:56:14;11.40;99.90
37412;DHT22;23278;52.110;6.050;2024-02-16T04:58:41;11.50;99.90
37412;DHT22;23278;52.110;6.050;2024-02-16T05:01:07;11.50;99.90
37412;DHT22;23278;52.110;6.050;2024-02-16T05:03:33;11.50;99.90
37412;DHT22;23278;52.110;6.050;2024-02-16T05:06:00;11.60;99.90
37412;DHT22;23278;52.110;6.050;2024-02-16T05:08:26;11.60;99.90
37412;DHT22;23278;52.110;6.050;2024-02-16T05:10:52;11.60;99.90
37412;DHT22;23278;52.110;6.050;2024-02-16T05:13:17;11.60;99.90
37412;DHT22;23278;52.110;6.050;2024-02-16T05:15:43;11.70;99.90
37412;DHT22;23278;52.110;6.050;2024-02-16T05:18:09;11.70;99.90
37412;DHT22;23278;52.110;6.050;2024-02-16T05:20:38;11.80;99.90
37412;DHT22;23278;52.110;6.050;2024-02-16T05:23:04;11.80;99.90
37412;DHT22;23278;52.110;6.050;2024-02-16T05:25:30;11.80;99.90
37412;DHT22;23278;52.110;6.050;2024-02-16T05:27:55;11.90;99.90
37412;DHT22;23278;52.110;6.050;2024-02-16T05:30:21;11.80;99.90
37412;DHT22;23278;52.110;6.050;2024-02-16T05:32:47;11.90;99.90
37412;DHT22;23278;52.110;6.050;2024-02-16T05:35:14;11.80;99.90
37412;DHT22;23278;52.110;6.050;2024-02-16T05:37:44;11.80;99.90
37412;DHT22;23278;52.110;6.050;2024-02-16T05:40:13;11.80;99.90
37412;DHT22;23278;52.110;6.050;2024-02-16T05:42:47;11.80;99.90
37412;DHT22;23278;52.110;6.050;2024-02-16T05:45:14;11.80;99.90
37412;DHT22;23278;52.110;6.050;2024-02-16T05:47:41;11.80;99.90
37412;DHT22;23278;52.110;6.050;2024-02-16T05:50:08;11.90;99.90
37412;DHT22;23278;52.110;6.050;2024-02-16T05:52:34;11.90;99.90
37412;DHT22;23278;52.110;6.050;2024-02-16T05:55:00;11.90;99.90
37412;DHT22;23278;52.110;6.050;2024-02-16T05:57:26;12.00;99.90
37412;DHT22;23278;52.110;6.050;2024-02-16T05:59:52;12.00;99.90
37412;DHT22;23278;52.110;6.050;2024-02-16T06:02:18;12.00;99.90
37412;DHT22;23278;52.110;6.050;2024-02-16T06:04:44;12.00;99.90
37412;DHT22;23278;52.110;6.050;2024-02-16T06:07:10;12.00;99.90
37412;DHT22;23278;52.110;6.050;2024-02-16T06:09:36;11.90;99.90
37412;DHT22;23278;52.110;6.050;2024-02-16T06:12:04;11.90;99.90
37412;DHT22;23278;52.110;6.050;2024-02-16T06:14:31;11.90;99.90
37412;DHT22;23278;52.110;6.050;2024-02-16T06:16:57;11.90;99.90
37412;DHT22;23278;52.110;6.050;2024-02-16T06:19:23;11.90;99.90
37412;DHT22;23278;52.110;6.050;2024-02-16T06:21:49;12.00;99.90
37412;DHT22;23278;52.110;6.050;2024-02-16T06:24:15;12.00;99.90
37412;DHT22;23278;52.110;6.050;2024-02-16T06:26:41;12.00;99.90
37412;DHT22;23278;52.110;6.050;2024-02-16T06:29:07;12.00;99.90
37412;DHT22;23278;52.110;6.050;2024-02-16T06:31:34;12.00;99.90
37412;DHT22;23278;52.110;6.050;2024-02-16T06:34:00;11.90;99.90
37412;DHT22;23278;52.110;6.050;2024-02-16T06:36:26;12.00;99.90
37412;DHT22;23278;52.110;6.050;2024-02-16T06:38:52;12.00;99.90
37412;DHT22;23278;52.110;6.050;2024-02-16T06:41:18;12.00;99.90
37412;DHT22;23278;52.110;6.050;2024-02-16T06:43:44;12.10;99.90
37412;DHT22;23278;52.110;6.050;2024-02-16T06:46:10;12.10;99.90
37412;DHT22;23278;52.110;6.050;2024-02-16T06:48:36;12.20;99.90
37412;DHT22;23278;52.110;6.050;2024-02-16T06:51:01;12.20;99.90
37412;DHT22;23278;52.110;6.050;2024-02-16T06:53:27;12.20;99.90
37412;DHT22;23278;52.110;6.050;2024-02-16T06:55:53;12.30;99.90
37412;DHT22;23278;52.110;6.050;2024-02-16T06:58:20;12.30;99.90
37412;DHT22;23278;52.110;6.050;2024-02-16T07:00:46;12.30;99.90
37412;DHT22;23278;52.110;6.050;2024-02-16T07:03:12;12.40;99.90
37412;DHT22;23278;52.110;6.050;2024-02-16T07:05:38;12.40;99.90
37412;DHT22;23278;52.110;6.050;2024-02-16T07:08:06;12.40;99.90
37412;DHT22;23278;52.110;6.050;2024-02-16T07:10:33;12.40;99.90
37412;DHT22;23278;52.110;6.050;2024-02-16T07:13:00;12.50;99.90
37412;DHT22;23278;52.110;6.050;2024-02-16T07:15:26;12.50;99.90
37412;DHT22;23278;52.110;6.050;2024-02-16T07:17:53;12.50;99.90
37412;DHT22;23278;52.110;6.050;2024-02-16T07:20:19;12.60;99.90
37412;DHT22;23278;52.110;6.050;2024-02-16T07:22:45;12.60;99.90
37412;DHT22;23278;52.110;6.050;2024-02-16T07:25:12;12.70;99.90
37412;DHT22;23278;52.110;6.050;2024-02-16T07:27:38;12.60;99.90
37412;DHT22;23278;52.110;6.050;2024-02-16T07:30:05;12.70;99.90
37412;DHT22;23278;52.110;6.050;2024-02-16T07:32:31;12.60;99.90
37412;DHT22;23278;52.110;6.050;2024-02-16T07:34:56;12.60;99.90
37412;DHT22;23278;52.110;6.050;2024-02-16T07:37:22;12.60;99.90
37412;DHT22;23278;52.110;6.050;2024-02-16T07:39:48;12.70;99.90
37412;DHT22;23278;52.110;6.050;2024-02-16T07:42:14;12.70;99.90
37412;DHT22;23278;52.110;6.050;2024-02-16T07:44:42;12.70;99.90
37412;DHT22;23278;52.110;6.050;2024-02-16T07:47:08;12.80;99.90
37412;DHT22;23278;52.110;6.050;2024-02-16T07:49:33;12.80;99.90
37412;DHT22;23278;52.110;6.050;2024-02-16T07:51:59;12.90;99.90
37412;DHT22;23278;52.110;6.050;2024-02-16T07:54:25;12.90;99.90
37412;DHT22;23278;52.110;6.050;2024-02-16T07:56:51;12.90;99.90
37412;DHT22;23278;52.110;6.050;2024-02-16T07:59:17;12.90;99.90
37412;DHT22;23278;52.110;6.050;2024-02-16T08:01:44;13.00;99.90
37412;DHT22;23278;52.110;6.050;2024-02-16T08:04:10;13.00;99.90
37412;DHT22;23278;52.110;6.050;2024-02-16T08:06:36;13.00;99.90
37412;DHT22;23278;52.110;6.050;2024-02-16T08:09:02;13.10;99.90
37412;DHT22;23278;52.110;6.050;2024-02-16T08:11:28;13.10;99.90
37412;DHT22;23278;52.110;6.050;2024-02-16T08:13:54;13.10;99.90
37412;DHT22;23278;52.110;6.050;2024-02-16T08:16:21;13.20;99.90
37412;DHT22;23278;52.110;6.050;2024-02-16T08:18:47;13.20;99.90
37412;DHT22;23278;52.110;6.050;2024-02-16T08:21:13;13.30;99.90
37412;DHT22;23278;52.110;6.050;2024-02-16T08:23:38;13.30;99.90
37412;DHT22;23278;52.110;6.050;2024-02-16T08:26:07;13.40;99.90
37412;DHT22;23278;52.110;6.050;2024-02-16T08:28:33;13.40;99.90
37412;DHT22;23278;52.110;6.050;2024-02-16T08:30:59;13.50;99.90
37412;DHT22;23278;52.110;6.050;2024-02-16T08:33:25;13.50;99.90
37412;DHT22;23278;52.110;6.050;2024-02-16T08:35:50;13.60;99.90
37412;DHT22;23278;52.110;6.050;2024-02-16T08:38:16;13.60;99.90
37412;DHT22;23278;52.110;6.050;2024-02-16T08:40:42;13.70;99.90
37412;DHT22;23278;52.110;6.050;2024-02-16T08:43:08;13.70;99.90
37412;DHT22;23278;52.110;6.050;2024-02-16T08:45:34;13.80;99.90
37412;DHT22;23278;52.110;6.050;2024-02-16T08:48:00;13.80;99.90
37412;DHT22;23278;52.110;6.050;2024-02-16T08:50:29;13.90;99.90
37412;DHT22;23278;52.110;6.050;2024-02-16T08:52:56;14.00;99.90
37412;DHT22;23278;52.110;6.050;2024-02-16T08:55:22;14.00;99.90
37412;DHT22;23278;52.110;6.050;2024-02-16T08:57:47;14.10;99.90
37412;DHT22;23278;52.110;6.050;2024-02-16T09:00:14;14.10;99.90
37412;DHT22;23278;52.110;6.050;2024-02-16T09:02:40;14.10;99.90
37412;DHT22;23278;52.110;6.050;2024-02-16T09:05:07;14.10;99.90
37412;DHT22;23278;52.110;6.050;2024-02-16T09:07:35;14.20;99.90
37412;DHT22;23278;52.110;6.050;2024-02-16T09:10:01;14.30;99.90
37412;DHT22;23278;52.110;6.050;2024-02-16T09:12:27;14.40;99.90
37412;DHT22;23278;52.110;6.050;2024-02-16T09:14:53;14.40;99.90
37412;DHT22;23278;52.110;6.050;2024-02-16T09:17:19;14.50;99.90
37412;DHT22;23278;52.110;6.050;2024-02-16T09:19:46;14.50;99.90
37412;DHT22;23278;52.110;6.050;2024-02-16T09:22:12;14.50;99.90
37412;DHT22;23278;52.110;6.050;2024-02-16T09:24:37;14.50;99.90
37412;DHT22;23278;52.110;6.050;2024-02-16T09:27:03;14.50;99.90
37412;DHT22;23278;52.110;6.050;2024-02-16T09:29:30;14.50;99.90
37412;DHT22;23278;52.110;6.050;2024-02-16T09:31:56;14.40;99.90
37412;DHT22;23278;52.110;6.050;2024-02-16T09:34:22;14.40;99.90
37412;DHT22;23278;52.110;6.050;2024-02-16T09:36:48;14.50;99.90
37412;DHT22;23278;52.110;6.050;2024-02-16T09:39:14;14.50;99.90
37412;DHT22;23278;52.110;6.050;2024-02-16T09:41:50;14.60;99.90
37412;DHT22;23278;52.110;6.050;2024-02-16T09:44:17;14.70;99.90
37412;DHT22;23278;52.110;6.050;2024-02-16T09:46:43;14.80;99.90
37412;DHT22;23278;52.110;6.050;2024-02-16T09:49:09;14.90;99.90
37412;DHT22;23278;52.110;6.050;2024-02-16T09:51:36;15.00;99.90
37412;DHT22;23278;52.110;6.050;2024-02-16T09:54:03;15.10;99.90
37412;DHT22;23278;52.110;6.050;2024-02-16T09:56:29;15.10;99.90
37412;DHT22;23278;52.110;6.050;2024-02-16T09:58:55;15.20;99.90
37412;DHT22;23278;52.110;6.050;2024-02-16T10:01:22;15.20;99.90
37412;DHT22;23278;52.110;6.050;2024-02-16T10:03:49;15.20;99.90
37412;DHT22;23278;52.110;6.050;2024-02-16T10:06:16;15.20;99.90
37412;DHT22;23278;52.110;6.050;2024-02-16T10:08:53;15.20;99.90
37412;DHT22;23278;52.110;6.050;2024-02-16T10:11:24;15.20;99.90
37412;DHT22;23278;52.110;6.050;2024-02-16T10:14:00;15.20;99.90
37412;DHT22;23278;52.110;6.050;2024-02-16T10:16:28;15.20;99.90
37412;DHT22;23278;52.110;6.050;2024-02-16T10:19:04;15.20;99.90
37412;DHT22;23278;52.110;6.050;2024-02-16T10:21:31;15.30;99.90
37412;DHT22;23278;52.110;6.050;2024-02-16T10:24:07;15.40;99.90
37412;DHT22;23278;52.110;6.050;2024-02-16T10:26:34;15.40;99.90
37412;DHT22;23278;52.110;6.050;2024-02-16T10:29:05;15.40;99.90
37412;DHT22;23278;52.110;6.050;2024-02-16T10:31:34;15.40;99.90
37412;DHT22;23278;52.110;6.050;2024-02-16T10:34:02;15.40;99.90
37412;DHT22;23278;52.110;6.050;2024-02-16T10:36:36;15.40;99.90
37412;DHT22;23278;52.110;6.050;2024-02-16T10:39:03;15.40;99.90
37412;DHT22;23278;52.110;6.050;2024-02-16T10:41:41;15.40;99.90
37412;DHT22;23278;52.110;6.050;2024-02-16T10:44:10;15.40;99.90
37412;DHT22;23278;52.110;6.050;2024-02-16T10:46:36;15.30;99.90
37412;DHT22;23278;52.110;6.050;2024-02-16T10:49:03;15.20;99.90
37412;DHT22;23278;52.110;6.050;2024-02-16T10:51:40;15.00;99.90
37412;DHT22;23278;52.110;6.050;2024-02-16T10:54:07;15.00;99.90
37412;DHT22;23278;52.110;6.050;2024-02-16T10:56:34;14.90;99.90
37412;DHT22;23278;52.110;6.050;2024-02-16T10:59:05;14.90;99.90
37412;DHT22;23278;52.110;6.050;2024-02-16T11:01:39;14.90;99.90
37412;DHT22;23278;52.110;6.050;2024-02-16T11:04:07;14.90;99.90
37412;DHT22;23278;52.110;6.050;2024-02-16T11:06:52;14.90;99.90
37412;DHT22;23278;52.110;6.050;2024-02-16T11:09:30;14.80;99.90
37412;DHT22;23278;52.110;6.050;2024-02-16T11:12:02;14.70;99.90
37412;DHT22;23278;52.110;6.050;2024-02-16T11:14:38;14.60;99.90
37412;DHT22;23278;52.110;6.050;2024-02-16T11:17:12;14.60;99.90
37412;DHT22;23278;52.110;6.050;2024-02-16T11:19:46;14.60;99.90
37412;DHT22;23278;52.110;6.050;2024-02-16T11:22:20;14.50;99.90
37412;DHT22;23278;52.110;6.050;2024-02-16T11:24:50;14.50;99.90
37412;DHT22;23278;52.110;6.050;2024-02-16T11:32:00;14.20;99.90
37412;DHT22;23278;52.110;6.050;2024-02-16T11:34:26;13.90;99.90
37412;DHT22;23278;52.110;6.050;2024-02-16T11:36:54;13.60;99.90
37412;DHT22;23278;52.110;6.050;2024-02-16T11:39:21;13.40;99.90
37412;DHT22;23278;52.110;6.050;2024-02-16T11:41:47;13.30;99.90
37412;DHT22;23278;52.110;6.050;2024-02-16T11:44:14;13.10;99.90
37412;DHT22;23278;52.110;6.050;2024-02-16T11:46:43;13.10;99.90
37412;DHT22;23278;52.110;6.050;2024-02-16T11:49:09;13.00;99.90
37412;DHT22;23278;52.110;6.050;2024-02-16T11:51:38;12.90;99.90
37412;DHT22;23278;52.110;6.050;2024-02-16T11:54:05;12.90;99.90
37412;DHT22;23278;52.110;6.050;2024-02-16T11:56:31;12.80;99.90
37412;DHT22;23278;52.110;6.050;2024-02-16T11:58:57;12.80;99.90
37412;DHT22;23278;52.110;6.050;2024-02-16T12:01:23;12.70;99.90
37412;DHT22;23278;52.110;6.050;2024-02-16T12:03:50;12.70;99.90
37412;DHT22;23278;52.110;6.050;2024-02-16T12:06:20;12.70;99.90
37412;DHT22;23278;52.110;6.050;2024-02-16T12:08:50;12.60;99.90
37412;DHT22;23278;52.110;6.050;2024-02-16T12:11:17;12.60;99.90
37412;DHT22;23278;52.110;6.050;2024-02-16T12:13:44;12.60;99.90
37412;DHT22;23278;52.110;6.050;2024-02-16T12:16:10;12.60;99.90
37412;DHT22;23278;52.110;6.050;2024-02-16T12:18:36;12.70;99.90
37412;DHT22;23278;52.110;6.050;2024-02-16T12:21:04;12.70;99.90
37412;DHT22;23278;52.110;6.050;2024-02-16T12:23:33;12.60;99.90
37412;DHT22;23278;52.110;6.050;2024-02-16T12:26:00;12.60;99.90
37412;DHT22;23278;52.110;6.050;2024-02-16T12:28:28;12.60;99.90
37412;DHT22;23278;52.110;6.050;2024-02-16T12:30:55;12.60;99.90
37412;DHT22;23278;52.110;6.050;2024-02-16T12:33:22;12.60;99.90
37412;DHT22;23278;52.110;6.050;2024-02-16T12:35:49;12.70;99.90
37412;DHT22;23278;52.110;6.050;2024-02-16T12:38:15;12.70;99.90
37412;DHT22;23278;52.110;6.050;2024-02-16T12:40:49;12.70;99.90
37412;DHT22;23278;52.110;6.050;2024-02-16T12:43:15;12.70;99.90
37412;DHT22;23278;52.110;6.050;2024-02-16T12:45:42;12.80;99.90
37412;DHT22;23278;52.110;6.050;2024-02-16T12:48:08;12.80;99.90
37412;DHT22;23278;52.110;6.050;2024-02-16T12:50:41;12.80;99.90
37412;DHT22;23278;52.110;6.050;2024-02-16T12:53:08;12.80;99.90
37412;DHT22;23278;52.110;6.050;2024-02-16T12:55:34;12.80;99.90
37412;DHT22;23278;52.110;6.050;2024-02-16T12:58:00;12.70;99.90
37412;DHT22;23278;52.110;6.050;2024-02-16T13:00:25;12.70;99.90
37412;DHT22;23278;52.110;6.050;2024-02-16T13:02:51;12.70;99.90
37412;DHT22;23278;52.110;6.050;2024-02-16T13:05:18;12.70;99.90
37412;DHT22;23278;52.110;6.050;2024-02-16T13:07:44;12.80;99.90
37412;DHT22;23278;52.110;6.050;2024-02-16T13:10:10;12.80;99.90
37412;DHT22;23278;52.110;6.050;2024-02-16T13:12:37;12.80;99.90
37412;DHT22;23278;52.110;6.050;2024-02-16T13:15:07;12.80;99.90
37412;DHT22;23278;52.110;6.050;2024-02-16T13:17:34;12.80;99.90
37412;DHT22;23278;52.110;6.050;2024-02-16T13:20:00;12.80;99.90
37412;DHT22;23278;52.110;6.050;2024-02-16T13:22:38;12.90;99.90
37412;DHT22;23278;52.110;6.050;2024-02-16T13:25:05;12.90;99.90
37412;DHT22;23278;52.110;6.050;2024-02-16T13:27:32;12.80;99.90
37412;DHT22;23278;52.110;6.050;2024-02-16T13:30:00;12.90;99.90
37412;DHT22;23278;52.110;6.050;2024-02-16T13:32:26;12.80;99.90
37412;DHT22;23278;52.110;6.050;2024-02-16T13:34:52;12.80;99.90
37412;DHT22;23278;52.110;6.050;2024-02-16T13:37:18;12.80;99.90
37412;DHT22;23278;52.110;6.050;2024-02-16T13:39:44;12.80;99.90
37412;DHT22;23278;52.110;6.050;2024-02-16T13:42:11;12.70;99.90
37412;DHT22;23278;52.110;6.050;2024-02-16T13:44:38;12.80;99.90
37412;DHT22;23278;52.110;6.050;2024-02-16T13:47:04;12.80;99.90
37412;DHT22;23278;52.110;6.050;2024-02-16T13:49:30;12.80;99.90
37412;DHT22;23278;52.110;6.050;2024-02-16T13:51:56;12.90;99.90
37412;DHT22;23278;52.110;6.050;2024-02-16T13:54:27;13.00;99.90
37412;DHT22;23278;52.110;6.050;2024-02-16T13:56:53;13.00;99.90
37412;DHT22;23278;52.110;6.050;2024-02-16T13:59:19;13.10;99.90
37412;DHT22;23278;52.110;6.050;2024-02-16T14:01:46;13.20;99.90
37412;DHT22;23278;52.110;6.050;2024-02-16T14:04:13;13.20;99.90
37412;DHT22;23278;52.110;6.050;2024-02-16T14:06:39;13.30;99.90
37412;DHT22;23278;52.110;6.050;2024-02-16T14:09:05;13.50;99.90
37412;DHT22;23278;52.110;6.050;2024-02-16T14:11:35;13.50;99.90
37412;DHT22;23278;52.110;6.050;2024-02-16T14:14:01;13.50;99.90
37412;DHT22;23278;52.110;6.050;2024-02-16T14:16:28;13.50;99.90
37412;DHT22;23278;52.110;6.050;2024-02-16T14:18:54;13.50;99.90
37412;DHT22;23278;52.110;6.050;2024-02-16T14:21:20;13.50;99.90
37412;DHT22;23278;52.110;6.050;2024-02-16T14:23:46;13.40;99.90
37412;DHT22;23278;52.110;6.050;2024-02-16T14:26:12;13.40;99.90
37412;DHT22;23278;52.110;6.050;2024-02-16T14:28:38;13.40;99.90
37412;DHT22;23278;52.110;6.050;2024-02-16T14:31:04;13.40;99.90
37412;DHT22;23278;52.110;6.050;2024-02-16T14:33:29;13.30;99.90
37412;DHT22;23278;52.110;6.050;2024-02-16T14:35:55;13.30;99.90
37412;DHT22;23278;52.110;6.050;2024-02-16T14:38:21;13.20;99.90
37412;DHT22;23278;52.110;6.050;2024-02-16T14:40:47;13.20;99.90
37412;DHT22;23278;52.110;6.050;2024-02-16T14:43:14;13.20;99.90
37412;DHT22;23278;52.110;6.050;2024-02-16T14:45:40;13.20;99.90
37412;DHT22;23278;52.110;6.050;2024-02-16T14:48:06;13.20;99.90
37412;DHT22;23278;52.110;6.050;2024-02-16T14:50:31;13.40;99.90
37412;DHT22;23278;52.110;6.050;2024-02-16T14:52:58;13.50;99.90
37412;DHT22;23278;52.110;6.050;2024-02-16T14:55:23;13.60;99.90
37412;DHT22;23278;52.110;6.050;2024-02-16T14:57:49;13.70;99.90
37412;DHT22;23278;52.110;6.050;2024-02-16T15:00:15;13.70;99.90
37412;DHT22;23278;52.110;6.050;2024-02-16T15:02:41;13.50;99.90
37412;DHT22;23278;52.110;6.050;2024-02-16T15:05:08;13.50;99.90
37412;DHT22;23278;52.110;6.050;2024-02-16T15:07:35;13.40;99.90
37412;DHT22;23278;52.110;6.050;2024-02-16T15:10:01;13.40;99.90
37412;DHT22;23278;52.110;6.050;2024-02-16T15:12:28;13.40;99.90
37412;DHT22;23278;52.110;6.050;2024-02-16T15:14:54;13.30;99.90
37412;DHT22;23278;52.110;6.050;2024-02-16T15:17:20;13.30;99.90
37412;DHT22;23278;52.110;6.050;2024-02-16T15:19:47;13.30;99.90
37412;DHT22;23278;52.110;6.050;2024-02-16T15:22:13;13.30;99.90
37412;DHT22;23278;52.110;6.050;2024-02-16T15:24:42;13.30;99.90
37412;DHT22;23278;52.110;6.050;2024-02-16T15:27:08;13.20;99.90
37412;DHT22;23278;52.110;6.050;2024-02-16T15:29:34;13.20;99.90
37412;DHT22;23278;52.110;6.050;2024-02-16T15:32:01;13.20;99.90